Brethren, Michigan
Current Conditions -  °F | °C
As of 2:55 PM on Sunday 23 Nov 2014 (Local Time) from KMBL Reporting Station
Overcast Overcast  
Wind Chill: 45°   Ceiling: 800
Heat Index: 48°   Visibility: 6mi
Dew Point: 45°   Wind: 8mph
Humidity: 87%   Direction: 160°SSE
Pressure: 29.58"   Gusts: NA
Location:  44.3°N, 86.02°W
Report Text: KMBL 231955Z AUTO 16007KT 6SM OVC008 09/07 A2958 RMK AO1 P0003
Loading
Personal Weather Stations






























Interactive Weather Map New forecast layout! Learn more

10-Day Weather Forecast

Advertisements
Track Severe Weather on mobile